Time;durP1;ratioP1;P1;durP2;ratioP2;P2;SDS_P1;SDS_P2;PMS_P1;PMS_P2;Temp;Humidity;BMP_temperature;BMP_pressure;BME280_temperature;BME280_humidity;BME280_pressure;Samples;Min_cycle;Max_cycle;Signal;HPM_P1;HPM_P2
2021/03/09 00:01:27;;;;;;;4.05;1.30;;;-0.40;15.00;;;;;;5113488;28;20231;-79
2021/03/09 00:03:55;;;;;;;3.20;1.70;;;-0.40;1.00;;;;;;5113982;28;20182;-79
2021/03/09 00:06:23;;;;;;;1.95;1.65;;;-0.40;1.00;;;;;;5118627;28;20167;-79
2021/03/09 00:08:50;;;;;;;2.63;1.73;;;-0.30;1.00;;;;;;5114447;28;20188;-78
2021/03/09 00:11:17;;;;;;;2.95;1.70;;;-0.30;99.90;;;;;;5101809;28;20207;-79
2021/03/09 00:13:45;;;;;;;1.65;1.23;;;-0.30;99.90;;;;;;5102366;28;20217;-78
2021/03/09 00:16:12;;;;;;;4.57;1.67;;;-0.30;99.90;;;;;;5106481;28;20206;-79
2021/03/09 00:18:40;;;;;;;1.48;1.10;;;-0.30;99.90;;;;;;5124612;28;20191;-79
2021/03/09 00:21:08;;;;;;;3.00;2.10;;;-0.20;99.90;;;;;;5091521;28;20219;-79
2021/03/09 00:23:35;;;;;;;1.10;0.80;;;-0.30;99.90;;;;;;5099800;28;20199;-80
2021/03/09 00:26:03;;;;;;;2.28;2.08;;;-0.30;99.90;;;;;;5094198;28;20204;-79
2021/03/09 00:28:30;;;;;;;1.90;1.38;;;-0.30;99.90;;;;;;5086195;28;20196;-78
2021/03/09 00:30:58;;;;;;;1.52;1.35;;;-0.30;99.90;;;;;;5111698;28;20597;-78
2021/03/09 00:33:25;;;;;;;3.95;3.08;;;-0.30;99.90;;;;;;5120221;28;20199;-79
2021/03/09 00:35:52;;;;;;;3.08;2.78;;;-0.30;99.90;;;;;;5115314;28;20194;-79
2021/03/09 00:38:21;;;;;;;1.52;1.42;;;-0.30;99.90;;;;;;5100821;28;20192;-80
2021/03/09 00:40:48;;;;;;;4.57;3.45;;;-0.30;99.90;;;;;;5108948;28;20215;-80
2021/03/09 00:43:15;;;;;;;2.83;1.58;;;-0.30;99.90;;;;;;5106828;28;20214;-79
2021/03/09 00:45:43;;;;;;;3.05;1.75;;;-0.30;99.90;;;;;;5077420;28;20198;-78
2021/03/09 00:48:10;;;;;;;3.88;2.08;;;-0.30;99.90;;;;;;5098564;28;20241;-79
2021/03/09 00:50:38;;;;;;;2.90;2.60;;;-0.30;99.90;;;;;;5089469;28;20291;-78
2021/03/09 00:53:05;;;;;;;2.45;1.80;;;-0.30;99.90;;;;;;5078925;28;20214;-78
2021/03/09 00:55:33;;;;;;;3.00;1.98;;;-0.30;99.90;;;;;;5119701;27;20195;-77
2021/03/09 00:58:01;;;;;;;1.92;1.55;;;-0.20;99.90;;;;;;5131441;27;20180;-76
2021/03/09 01:00:30;;;;;;;9.60;4.28;;;-0.20;99.90;;;;;;5131302;27;20214;-77
2021/03/09 01:02:58;;;;;;;2.03;1.40;;;-0.20;99.90;;;;;;5114976;27;20159;-76
2021/03/09 01:05:26;;;;;;;1.67;1.27;;;-0.10;99.90;;;;;;5138623;27;20158;-76
2021/03/09 01:07:54;;;;;;;3.17;1.58;;;-0.10;99.90;;;;;;5137552;27;20159;-77
2021/03/09 01:10:22;;;;;;;4.10;2.85;;;-0.10;99.90;;;;;;5122507;28;20202;-77
2021/03/09 01:12:50;;;;;;;2.60;1.90;;;-0.10;99.90;;;;;;5129795;28;20219;-78
2021/03/09 01:15:18;;;;;;;2.03;1.48;;;-0.10;99.90;;;;;;5105921;28;20183;-77
2021/03/09 01:17:45;;;;;;;5.70;2.00;;;0.00;99.90;;;;;;5107714;28;20179;-79
2021/03/09 01:20:14;;;;;;;2.95;2.35;;;0.00;99.90;;;;;;5091937;28;20207;-78
2021/03/09 01:22:41;;;;;;;1.75;1.38;;;0.00;99.90;;;;;;5100597;28;20190;-79
2021/03/09 01:25:09;;;;;;;3.45;3.15;;;0.00;99.90;;;;;;5093691;28;20194;-78
2021/03/09 01:27:37;;;;;;;2.42;1.83;;;0.10;99.90;;;;;;5077056;28;20180;-77
2021/03/09 01:30:08;;;;;;;2.22;1.77;;;0.10;99.90;;;;;;5091323;28;20219;-78
2021/03/09 01:32:35;;;;;;;3.67;2.50;;;0.10;99.90;;;;;;5095767;28;20203;-78
2021/03/09 01:35:04;;;;;;;3.80;2.55;;;0.00;99.90;;;;;;5101355;28;20194;-78
2021/03/09 01:37:32;;;;;;;2.75;1.42;;;0.00;99.90;;;;;;5096201;28;20255;-78
2021/03/09 01:40:00;;;;;;;1.88;1.77;;;0.00;99.90;;;;;;5082851;28;20211;-78
2021/03/09 01:42:27;;;;;;;2.85;1.40;;;0.00;99.90;;;;;;5081812;28;20200;-78
2021/03/09 01:44:55;;;;;;;3.42;2.67;;;0.00;99.90;;;;;;5100829;28;20194;-77
2021/03/09 01:47:23;;;;;;;2.85;1.92;;;-0.10;99.90;;;;;;5081082;28;20184;-79
2021/03/09 01:49:55;;;;;;;1.60;1.50;;;-0.10;99.90;;;;;;5104081;22;20210;31
2021/03/09 01:52:23;;;;;;;2.80;1.90;;;-0.10;99.90;;;;;;5031272;28;20213;-70
2021/03/09 01:54:50;;;;;;;1.52;1.08;;;-0.20;99.90;;;;;;5015508;28;20193;-71
2021/03/09 01:57:18;;;;;;;7.05;3.90;;;-0.20;99.90;;;;;;5033651;28;20633;-71
2021/03/09 01:59:48;;;;;;;4.63;1.85;;;-0.20;99.90;;;;;;5033375;28;20244;-70
2021/03/09 02:02:15;;;;;;;5.93;2.85;;;-0.20;99.90;;;;;;5033250;28;20221;-70
2021/03/09 02:04:43;;;;;;;2.70;1.95;;;-0.30;99.90;;;;;;5032987;28;20269;-70
2021/03/09 02:07:10;;;;;;;8.02;2.05;;;-0.30;99.90;;;;;;5033544;28;20213;-70
2021/03/09 02:09:38;;;;;;;3.72;1.70;;;-0.40;99.90;;;;;;5033513;28;20532;-70
2021/03/09 02:12:14;;;;;;;2.53;1.80;;;-0.40;99.90;;;;;;5019220;28;20210;-70
2021/03/09 02:14:50;;;;;;;6.35;2.35;;;-0.40;99.90;;;;;;5035235;28;20607;-70
2021/03/09 02:17:21;;;;;;;2.83;1.90;;;-0.40;99.90;;;;;;5035147;28;20318;-70
2021/03/09 02:20:51;;;;;;;3.88;2.50;;;-0.50;99.90;;;;;;5052797;28;20568;-70
2021/03/09 02:24:03;;;;;;;3.95;2.30;;;-0.50;99.90;;;;;;4971921;28;20179;-71
2021/03/09 02:26:37;;;;;;;5.60;1.70;;;-0.50;99.90;;;;;;5045043;28;20216;-70
2021/03/09 02:29:15;;;;;;;4.25;2.92;;;-0.50;99.90;;;;;;5052514;28;20173;-70
2021/03/09 02:31:47;;;;;;;2.25;1.75;;;-0.50;99.90;;;;;;5034945;28;20635;-70
2021/03/09 02:34:22;;;;;;;2.13;1.45;;;-0.50;99.90;;;;;;5034585;28;20188;-70
2021/03/09 02:36:50;;;;;;;1.63;1.45;;;-0.50;99.90;;;;;;5052569;28;20265;-70
2021/03/09 02:39:18;;;;;;;4.18;1.63;;;-0.50;99.90;;;;;;5052501;28;20231;-70
2021/03/09 02:41:47;;;;;;;2.50;1.27;;;-0.60;99.90;;;;;;5052504;28;20592;-71
2021/03/09 02:44:19;;;;;;;2.78;1.48;;;-0.60;99.90;;;;;;5052356;28;20173;-70
2021/03/09 02:46:48;;;;;;;2.15;1.95;;;-0.70;99.90;;;;;;5052346;28;20254;-71
2021/03/09 02:49:28;;;;;;;4.18;2.13;;;-0.70;99.90;;;;;;5052651;28;20192;-70
2021/03/09 02:51:56;;;;;;;1.85;1.40;;;-0.70;99.90;;;;;;5052302;28;20193;-71
2021/03/09 02:54:25;;;;;;;4.25;2.53;;;-0.80;99.90;;;;;;5052169;28;20184;-71
2021/03/09 02:56:52;;;;;;;3.30;1.33;;;-0.80;99.90;;;;;;5052190;28;20215;-71
2021/03/09 02:59:21;;;;;;;2.55;1.70;;;-0.80;99.90;;;;;;5033679;28;20601;-71
2021/03/09 03:01:50;;;;;;;4.22;2.63;;;-0.80;99.90;;;;;;5052585;28;20183;-71
2021/03/09 03:04:19;;;;;;;3.70;1.65;;;-0.80;99.90;;;;;;5052156;28;20233;-70
2021/03/09 03:06:48;;;;;;;2.30;2.10;;;-0.80;99.90;;;;;;5034353;28;20208;-71
2021/03/09 03:09:17;;;;;;;5.93;2.55;;;-0.80;99.90;;;;;;5052016;28;20601;-70
2021/03/09 03:11:46;;;;;;;1.88;1.30;;;-0.90;99.90;;;;;;5051860;28;20184;-71
2021/03/09 03:14:15;;;;;;;2.63;2.20;;;-0.80;99.90;;;;;;5034309;28;20177;-70
2021/03/09 03:16:43;;;;;;;6.22;2.97;;;-0.90;99.90;;;;;;5052309;28;20693;-71
2021/03/09 03:19:14;;;;;;;2.72;2.15;;;-0.90;99.90;;;;;;5052203;28;20193;-71
2021/03/09 03:21:42;;;;;;;1.85;1.75;;;-0.90;99.90;;;;;;5052022;28;20193;-71
2021/03/09 03:24:10;;;;;;;2.67;1.88;;;-0.90;99.90;;;;;;5041985;28;20216;-71
2021/03/09 03:26:40;;;;;;;3.40;1.75;;;-0.90;99.90;;;;;;5052456;28;20213;-71
2021/03/09 03:29:09;;;;;;;5.80;2.53;;;-1.00;99.90;;;;;;5052614;28;20630;-71
2021/03/09 03:31:36;;;;;;;6.90;3.10;;;-1.00;99.90;;;;;;5034085;28;20204;-71
2021/03/09 03:34:04;;;;;;;2.45;2.25;;;-0.90;99.90;;;;;;5052377;28;20221;-71
2021/03/09 03:36:33;;;;;;;1.42;1.17;;;-0.90;99.90;;;;;;5051798;28;20219;-70
2021/03/09 03:39:01;;;;;;;6.70;2.50;;;-0.90;99.90;;;;;;5052282;28;20695;-70
2021/03/09 03:41:28;;;;;;;6.45;1.85;;;-0.90;99.90;;;;;;5052541;28;20661;-71
2021/03/09 03:43:55;;;;;;;6.03;2.30;;;-0.90;99.90;;;;;;5052326;28;20231;-71
2021/03/09 03:46:23;;;;;;;6.13;2.95;;;-0.80;99.90;;;;;;5052793;28;20684;-71
2021/03/09 03:48:50;;;;;;;2.25;1.90;;;-0.80;99.90;;;;;;5057246;28;20191;-71
2021/03/09 03:51:19;;;;;;;5.10;3.25;;;-0.90;99.90;;;;;;5055614;28;20192;-71
2021/03/09 03:53:54;;;;;;;5.60;2.85;;;-0.90;99.90;;;;;;5056085;28;20386;-70
2021/03/09 03:56:31;;;;;;;2.38;2.10;;;-0.90;99.90;;;;;;5057448;28;20395;-70
2021/03/09 03:59:04;;;;;;;3.88;1.83;;;-0.90;99.90;;;;;;5052008;28;20176;-71
2021/03/09 04:01:33;;;;;;;19.63;2.30;;;-0.90;99.90;;;;;;5034265;28;20193;-70
2021/03/09 04:04:06;;;;;;;2.03;1.88;;;-0.90;99.90;;;;;;5034116;28;20219;-71
2021/03/09 04:06:35;;;;;;;2.15;1.88;;;-0.90;99.90;;;;;;5052020;28;20247;-71
2021/03/09 04:09:05;;;;;;;5.53;2.20;;;-0.90;99.90;;;;;;5051852;28;20189;-71
2021/03/09 04:11:33;;;;;;;1.48;1.25;;;-0.90;99.90;;;;;;5055992;28;20268;-71
2021/03/09 04:14:01;;;;;;;4.55;2.28;;;-0.90;99.90;;;;;;5059803;28;20196;-70
2021/03/09 04:16:30;;;;;;;4.18;2.47;;;-0.90;99.90;;;;;;5060062;28;20295;-71
2021/03/09 04:19:00;;;;;;;1.95;1.65;;;-0.80;99.90;;;;;;5043153;28;20200;-70
2021/03/09 04:21:27;;;;;;;8.02;2.35;;;-0.80;99.90;;;;;;5059708;28;20203;-70
2021/03/09 04:23:55;;;;;;;1.92;1.00;;;-0.80;99.90;;;;;;5059461;28;20577;-71
2021/03/09 04:26:25;;;;;;;2.38;1.48;;;-0.80;99.90;;;;;;5057101;28;20256;-70
2021/03/09 04:28:53;;;;;;;2.20;1.70;;;-0.80;99.90;;;;;;5055711;28;20593;-70
2021/03/09 04:31:21;;;;;;;3.22;1.85;;;-0.80;99.90;;;;;;5049339;28;20358;-70
2021/03/09 04:33:49;;;;;;;3.17;2.53;;;-0.80;99.90;;;;;;5055309;28;20204;-71
2021/03/09 04:36:17;;;;;;;2.00;1.77;;;-0.80;99.90;;;;;;5055296;28;20209;-70
2021/03/09 04:38:46;;;;;;;5.22;2.72;;;-0.80;99.90;;;;;;5055257;28;20260;-70
2021/03/09 04:41:13;;;;;;;3.72;2.53;;;-0.70;99.90;;;;;;5055139;28;20184;-70
2021/03/09 04:43:41;;;;;;;3.83;1.65;;;-0.80;99.90;;;;;;5055035;28;20181;-70
2021/03/09 04:46:09;;;;;;;5.70;2.97;;;-0.70;99.90;;;;;;5055161;28;20696;-70
2021/03/09 04:48:37;;;;;;;9.93;1.95;;;-0.70;99.90;;;;;;5055072;28;20189;-71
2021/03/09 04:51:07;;;;;;;3.28;1.90;;;-0.70;99.90;;;;;;5054882;28;20201;-70
2021/03/09 04:53:35;;;;;;;6.97;1.40;;;-0.70;99.90;;;;;;5054941;28;20532;-71
2021/03/09 04:56:06;;;;;;;3.30;2.13;;;-0.70;99.90;;;;;;5054610;28;20303;-71
2021/03/09 04:58:33;;;;;;;1.40;1.13;;;-0.70;99.90;;;;;;5054798;28;20276;-71
2021/03/09 05:01:02;;;;;;;2.42;1.27;;;-0.70;99.90;;;;;;5054524;28;20366;-70
2021/03/09 05:03:32;;;;;;;3.75;2.38;;;-0.70;99.90;;;;;;5054655;28;20260;-70
2021/03/09 05:06:00;;;;;;;4.05;2.80;;;-0.70;99.90;;;;;;5054492;28;20342;-70
2021/03/09 05:08:27;;;;;;;2.83;2.17;;;-0.70;99.90;;;;;;5054970;28;20662;-70
2021/03/09 05:10:55;;;;;;;6.50;2.42;;;-0.70;99.90;;;;;;5054790;28;20230;-70
2021/03/09 05:13:22;;;;;;;2.03;1.52;;;-0.70;99.90;;;;;;5054623;28;20300;-70
2021/03/09 05:15:49;;;;;;;4.38;1.73;;;-0.70;99.90;;;;;;5054200;28;20209;-70
2021/03/09 05:18:18;;;;;;;3.00;2.53;;;-0.70;99.90;;;;;;5036483;28;20197;-71
2021/03/09 05:20:46;;;;;;;1.75;1.65;;;-0.70;99.90;;;;;;5053824;28;20177;-71
2021/03/09 05:23:13;;;;;;;4.80;3.30;;;-0.70;99.90;;;;;;5054633;28;20691;-71
2021/03/09 05:25:40;;;;;;;3.10;2.88;;;-0.80;99.90;;;;;;5036288;28;20564;-71
2021/03/09 05:28:07;;;;;;;2.75;1.70;;;-0.80;99.90;;;;;;5054259;28;20185;-70
2021/03/09 05:30:34;;;;;;;6.72;2.53;;;-0.80;99.90;;;;;;5054358;28;20633;-71
2021/03/09 05:33:01;;;;;;;3.92;2.17;;;-0.80;99.90;;;;;;5054411;28;20614;-71
2021/03/09 05:35:30;;;;;;;1.75;1.60;;;-0.80;99.90;;;;;;5053957;28;20684;-71
2021/03/09 05:37:59;;;;;;;3.40;2.40;;;-0.80;99.90;;;;;;5053795;28;20177;-71
2021/03/09 05:40:26;;;;;;;5.63;2.28;;;-0.80;99.90;;;;;;5045999;28;20185;-70
2021/03/09 05:42:54;;;;;;;7.22;3.08;;;-0.80;99.90;;;;;;5053659;28;20173;-69
2021/03/09 05:45:22;;;;;;;3.75;2.78;;;-0.80;99.90;;;;;;5035991;28;20184;-71
2021/03/09 05:47:52;;;;;;;3.00;1.60;;;-0.80;99.90;;;;;;5036126;28;20240;-70
2021/03/09 05:50:19;;;;;;;3.95;3.30;;;-0.70;99.90;;;;;;5054083;28;20685;-70
2021/03/09 05:52:48;;;;;;;3.75;1.75;;;-0.70;99.90;;;;;;5053899;28;20262;-70
2021/03/09 05:55:15;;;;;;;2.72;2.47;;;-0.70;99.90;;;;;;5053977;28;20684;-70
2021/03/09 05:57:42;;;;;;;3.45;2.47;;;-0.60;99.90;;;;;;5053875;28;20279;-71
2021/03/09 06:00:11;;;;;;;5.65;2.83;;;-0.50;99.90;;;;;;5054494;28;20192;-71
2021/03/09 06:02:39;;;;;;;5.43;2.75;;;-0.60;99.90;;;;;;5054175;28;20276;-71
2021/03/09 06:05:09;;;;;;;3.20;2.28;;;-0.50;99.90;;;;;;5054239;28;20677;-71
2021/03/09 06:07:36;;;;;;;7.43;2.55;;;-0.50;99.90;;;;;;5054216;28;20236;-71
2021/03/09 06:10:06;;;;;;;3.78;2.50;;;-0.40;99.90;;;;;;5054113;28;20173;-73
2021/03/09 06:12:33;;;;;;;4.00;2.25;;;-0.40;99.90;;;;;;5053690;28;20215;-70
2021/03/09 06:15:03;;;;;;;6.25;2.28;;;-0.30;99.90;;;;;;5053583;28;20267;-71
2021/03/09 06:17:35;;;;;;;3.42;2.30;;;-0.30;99.90;;;;;;5054028;28;20204;-71
2021/03/09 06:20:24;;;;;;;7.60;2.15;;;-0.20;99.90;;;;;;5055107;28;20258;-70
2021/03/09 06:22:53;;;;;;;7.90;2.35;;;-0.10;99.90;;;;;;5054672;28;20184;-70
2021/03/09 06:25:23;;;;;;;10.80;3.35;;;-0.10;99.90;;;;;;5053456;28;20196;-69
2021/03/09 06:27:50;;;;;;;4.63;2.45;;;0.00;99.90;;;;;;5035911;28;20274;-73
2021/03/09 06:30:29;;;;;;;3.30;2.53;;;0.00;99.90;;;;;;5053241;28;20211;-68
2021/03/09 06:32:57;;;;;;;2.97;2.45;;;0.10;99.90;;;;;;5053633;28;20212;-71
2021/03/09 06:35:32;;;;;;;2.85;2.13;;;0.20;99.90;;;;;;5035822;28;20197;-71
2021/03/09 06:38:15;;;;;;;3.40;3.10;;;0.20;99.90;;;;;;5054252;28;20183;-72
2021/03/09 06:40:44;;;;;;;2.67;1.80;;;0.30;99.90;;;;;;5052219;28;20735;-70
2021/03/09 06:43:19;;;;;;;11.52;5.32;;;0.40;99.90;;;;;;5053639;28;20188;-71
2021/03/09 06:45:47;;;;;;;6.53;2.67;;;0.50;99.90;;;;;;5053242;28;20180;-71
2021/03/09 06:48:21;;;;;;;4.45;3.10;;;0.60;99.90;;;;;;5035311;28;20207;-71
2021/03/09 06:50:49;;;;;;;6.30;2.15;;;0.70;99.90;;;;;;5052912;28;20200;-71
2021/03/09 06:53:27;;;;;;;11.13;3.28;;;0.80;99.90;;;;;;5053108;28;20205;-69
2021/03/09 06:55:55;;;;;;;4.50;3.53;;;0.90;99.90;;;;;;5046709;28;20219;-71
2021/03/09 06:58:27;;;;;;;16.58;4.07;;;0.90;99.90;;;;;;5072795;28;20656;-71
2021/03/09 07:00:55;;;;;;;5.55;2.60;;;1.00;99.90;;;;;;5073383;28;20581;-70
2021/03/09 07:03:36;;;;;;;4.38;2.85;;;1.10;99.90;;;;;;5072845;28;20176;-72
2021/03/09 07:06:04;;;;;;;7.47;2.67;;;1.20;99.90;;;;;;5073465;28;20199;-70
2021/03/09 07:08:32;;;;;;;7.88;3.40;;;1.20;99.90;;;;;;5073101;28;20538;-70
2021/03/09 07:11:00;;;;;;;8.70;5.22;;;1.20;99.90;;;;;;5072802;28;20263;-70
2021/03/09 07:13:28;;;;;;;6.65;3.10;;;1.20;99.90;;;;;;5054827;28;20204;-70
2021/03/09 07:15:56;;;;;;;4.70;4.28;;;1.30;99.90;;;;;;5072481;28;20568;-70
2021/03/09 07:18:25;;;;;;;4.65;2.88;;;1.30;99.90;;;;;;5072538;28;20183;-72
2021/03/09 07:20:57;;;;;;;4.93;3.05;;;1.30;99.90;;;;;;5072437;28;20172;-73
2021/03/09 07:23:25;;;;;;;8.10;3.92;;;1.30;99.90;;;;;;5054973;28;20537;-72
2021/03/09 07:25:54;;;;;;;8.02;4.85;;;1.30;99.90;;;;;;5072607;28;20219;-72
2021/03/09 07:28:23;;;;;;;6.38;4.80;;;1.40;99.90;;;;;;5072891;28;20180;-71
2021/03/09 07:30:52;;;;;;;2.63;2.42;;;1.40;99.90;;;;;;5072938;28;20653;-73
2021/03/09 07:33:20;;;;;;;7.35;2.83;;;1.40;99.90;;;;;;5071204;28;20207;-70
2021/03/09 07:35:47;;;;;;;3.78;3.40;;;1.40;99.90;;;;;;5069895;28;20571;-69
2021/03/09 07:38:19;;;;;;;6.05;3.33;;;1.40;99.90;;;;;;5070290;28;20613;-70
2021/03/09 07:40:47;;;;;;;7.20;3.70;;;1.40;99.90;;;;;;5070343;28;20183;-69
2021/03/09 07:43:14;;;;;;;6.20;3.30;;;1.50;99.90;;;;;;5070839;28;20169;-69
2021/03/09 07:45:44;;;;;;;9.35;2.83;;;1.70;99.90;;;;;;5074075;28;20675;-68
2021/03/09 07:48:12;;;;;;;4.60;3.78;;;1.70;99.90;;;;;;5075045;28;20642;-70
2021/03/09 07:50:39;;;;;;;6.18;3.92;;;1.90;99.90;;;;;;5069947;28;20683;-70
2021/03/09 07:53:08;;;;;;;5.47;3.90;;;2.10;99.90;;;;;;5055284;28;20212;-71
2021/03/09 07:55:35;;;;;;;6.88;3.70;;;2.10;99.90;;;;;;5055295;28;20169;-69
2021/03/09 07:58:16;;;;;;;3.78;3.15;;;2.30;99.90;;;;;;5036391;28;20557;-67
2021/03/09 08:00:56;;;;;;;8.70;4.80;;;2.40;99.90;;;;;;5036616;28;20552;-68
2021/03/09 08:03:24;;;;;;;9.50;6.45;;;2.60;99.90;;;;;;5054416;28;20172;-71
2021/03/09 08:05:56;;;;;;;4.43;3.22;;;2.60;99.90;;;;;;5054129;28;20208;-69
2021/03/09 08:08:39;;;;;;;8.20;5.00;;;2.60;99.90;;;;;;5055549;28;20219;-72
2021/03/09 08:11:06;;;;;;;5.43;3.58;;;2.70;99.90;;;;;;5055264;28;20224;-71
2021/03/09 08:13:34;;;;;;;7.57;4.85;;;2.70;99.90;;;;;;5055079;28;20724;-72
2021/03/09 08:16:31;;;;;;;7.72;4.40;;;2.90;99.90;;;;;;5054674;28;20310;-72
2021/03/09 08:19:02;;;;;;;5.53;4.30;;;2.90;99.90;;;;;;5032872;28;20283;-69
2021/03/09 08:21:50;;;;;;;6.00;3.90;;;3.10;99.90;;;;;;5056273;28;20545;-70
2021/03/09 08:24:19;;;;;;;7.68;3.28;;;3.20;99.90;;;;;;5056245;28;20195;-70
2021/03/09 08:26:48;;;;;;;11.73;4.78;;;3.20;99.90;;;;;;5056032;28;20247;-69
2021/03/09 08:29:35;;;;;;;11.20;5.60;;;3.30;99.90;;;;;;5055504;28;20200;-69
2021/03/09 08:32:31;;;;;;;8.52;4.57;;;3.60;99.90;;;;;;5055839;28;20189;-69
2021/03/09 08:35:34;;;;;;;7.32;3.22;;;3.80;99.90;;;;;;5055660;28;20197;-70
2021/03/09 08:38:16;;;;;;;11.32;5.43;;;3.90;99.90;;;;;;5051241;28;20201;-70
2021/03/09 08:41:07;;;;;;;6.72;2.80;;;3.90;99.90;;;;;;5054459;28;20177;-69
2021/03/09 08:43:35;;;;;;;9.48;3.92;;;3.90;99.90;;;;;;5047514;28;20177;-70
2021/03/09 08:46:08;;;;;;;5.75;4.45;;;3.90;99.90;;;;;;5054198;28;20216;-70
2021/03/09 08:48:47;;;;;;;7.20;3.75;;;3.90;99.90;;;;;;5053539;28;20545;-69
2021/03/09 08:51:49;;;;;;;6.32;3.75;;;3.80;99.90;;;;;;5055006;28;20597;-70
2021/03/09 08:54:23;;;;;;;8.60;3.45;;;3.70;99.90;;;;;;5055185;28;20279;-70
2021/03/09 08:56:51;;;;;;;7.35;4.70;;;3.80;99.90;;;;;;5036724;28;20254;-70
2021/03/09 08:59:22;;;;;;;6.65;3.85;;;3.80;99.90;;;;;;5055027;28;20185;-70
2021/03/09 09:01:51;;;;;;;4.97;4.43;;;3.80;99.90;;;;;;5054909;28;20188;-71
2021/03/09 09:04:19;;;;;;;6.25;4.40;;;3.90;99.90;;;;;;5054893;28;20173;-72
2021/03/09 09:06:48;;;;;;;10.48;5.28;;;4.10;99.90;;;;;;5036831;28;20267;-72
2021/03/09 09:09:30;;;;;;;4.05;3.40;;;4.30;99.90;;;;;;5054081;28;20193;-72
2021/03/09 09:11:58;;;;;;;7.57;4.30;;;4.50;99.90;;;;;;5054948;28;20180;-71
2021/03/09 09:14:26;;;;;;;9.15;4.35;;;4.50;99.90;;;;;;5036409;28;20236;-71
2021/03/09 09:16:54;;;;;;;7.38;3.63;;;4.50;99.90;;;;;;5036844;28;20220;-71
2021/03/09 09:19:22;;;;;;;8.00;3.72;;;4.40;99.90;;;;;;5036735;28;20200;-72
2021/03/09 09:21:51;;;;;;;4.57;3.20;;;4.40;99.90;;;;;;5054889;28;20188;-70
2021/03/09 09:24:23;;;;;;;4.38;2.28;;;4.60;99.90;;;;;;5057668;28;20634;-72
2021/03/09 09:27:01;;;;;;;4.00;2.58;;;4.70;99.90;;;;;;5054215;28;20227;-73
2021/03/09 09:29:29;;;;;;;8.10;4.85;;;4.70;99.90;;;;;;5054503;28;20177;-70
2021/03/09 09:32:01;;;;;;;4.80;2.95;;;4.70;99.90;;;;;;5054571;28;20192;-72
2021/03/09 09:34:38;;;;;;;3.83;3.10;;;4.70;99.90;;;;;;5054487;28;20229;-70
2021/03/09 09:37:10;;;;;;;8.57;3.03;;;4.70;99.90;;;;;;5054320;28;20238;-72
2021/03/09 09:39:38;;;;;;;3.47;2.45;;;4.90;99.90;;;;;;5055037;28;20184;-71
2021/03/09 09:42:16;;;;;;;2.78;2.38;;;4.90;99.90;;;;;;5036586;28;20188;-71
2021/03/09 09:44:44;;;;;;;4.35;2.30;;;5.00;99.90;;;;;;5054766;28;20183;-71
2021/03/09 09:47:13;;;;;;;7.43;2.85;;;5.00;99.90;;;;;;5055524;28;20400;-70
2021/03/09 09:49:45;;;;;;;8.57;4.28;;;5.10;99.90;;;;;;5060348;28;20651;-71
2021/03/09 09:52:14;;;;;;;8.43;3.67;;;5.40;99.90;;;;;;5073795;28;20188;-69
2021/03/09 09:54:52;;;;;;;3.92;2.55;;;5.40;99.90;;;;;;5074146;28;20192;-70
2021/03/09 09:57:20;;;;;;;3.38;2.40;;;5.60;99.90;;;;;;5075140;28;20215;-72
2021/03/09 09:59:47;;;;;;;6.30;3.17;;;5.80;99.90;;;;;;5073383;28;20184;-71
2021/03/09 10:02:19;;;;;;;3.30;2.17;;;5.90;99.90;;;;;;5072675;28;20241;-68
2021/03/09 10:04:50;;;;;;;2.10;1.85;;;6.10;99.90;;;;;;5072360;28;20168;-72
2021/03/09 10:07:21;;;;;;;8.88;2.58;;;5.90;99.90;;;;;;5072451;28;20242;-69
2021/03/09 10:10:09;;;;;;;6.80;2.50;;;6.20;99.90;;;;;;5071722;28;20188;-69
2021/03/09 10:12:45;;;;;;;4.82;3.60;;;6.30;99.90;;;;;;5073008;28;20267;-70
2021/03/09 10:15:13;;;;;;;3.38;1.75;;;6.30;99.90;;;;;;5072261;28;20258;-71
2021/03/09 10:17:40;;;;;;;3.60;2.80;;;6.40;99.90;;;;;;5071878;28;20684;-71
2021/03/09 10:20:22;;;;;;;1.95;1.55;;;6.70;99.90;;;;;;5072313;28;20263;-69
2021/03/09 10:23:01;;;;;;;5.30;2.75;;;6.90;99.90;;;;;;5032488;28;20235;-72
2021/03/09 10:25:28;;;;;;;4.15;2.97;;;7.10;99.90;;;;;;5033778;28;20268;-72
2021/03/09 10:28:02;;;;;;;3.55;2.10;;;7.30;99.90;;;;;;5032462;28;20228;-72
2021/03/09 10:30:38;;;;;;;5.07;2.35;;;7.30;99.90;;;;;;5040721;28;20273;-70
2021/03/09 10:33:09;;;;;;;3.05;1.98;;;7.50;99.90;;;;;;5052676;28;20192;-71
2021/03/09 10:36:05;;;;;;;2.13;1.70;;;7.50;99.90;;;;;;5053042;28;20535;-70
2021/03/09 10:38:33;;;;;;;5.30;4.00;;;7.40;99.90;;;;;;5052444;28;20200;-69
2021/03/09 10:41:01;;;;;;;2.85;2.47;;;7.50;99.90;;;;;;5052595;28;20177;-70
2021/03/09 10:43:42;;;;;;;4.25;3.95;;;7.60;99.90;;;;;;5052486;28;20172;-71
2021/03/09 10:46:11;;;;;;;2.10;1.90;;;7.50;99.90;;;;;;5052223;28;20632;-69
2021/03/09 10:48:39;;;;;;;3.55;2.10;;;7.40;99.90;;;;;;5065877;28;20192;-69
2021/03/09 10:51:17;;;;;;;3.55;2.30;;;7.40;99.90;;;;;;5067770;28;20232;-72
2021/03/09 10:53:45;;;;;;;3.25;2.72;;;7.60;99.90;;;;;;5052612;28;20192;-67
2021/03/09 10:56:13;;;;;;;2.85;2.13;;;7.90;99.90;;;;;;5062539;28;20764;-69
2021/03/09 10:58:40;;;;;;;6.00;2.75;;;8.10;99.90;;;;;;5072001;28;20188;-69
2021/03/09 11:01:08;;;;;;;4.38;2.28;;;8.00;99.90;;;;;;5054978;28;20309;-69
2021/03/09 11:03:35;;;;;;;5.35;2.97;;;7.90;99.90;;;;;;5051042;28;20183;-71
2021/03/09 11:06:02;;;;;;;10.80;3.60;;;7.40;99.90;;;;;;5051971;28;20205;-68
2021/03/09 11:08:30;;;;;;;4.38;3.42;;;7.40;99.90;;;;;;5051587;28;20250;-71
2021/03/09 11:10:58;;;;;;;4.38;2.67;;;7.30;99.90;;;;;;5052338;28;20189;-68
2021/03/09 11:13:25;;;;;;;3.95;2.33;;;7.00;99.90;;;;;;5071674;28;20609;-68
2021/03/09 11:15:52;;;;;;;7.28;3.83;;;7.00;99.90;;;;;;5053343;28;20228;-69
2021/03/09 11:18:19;;;;;;;4.80;2.92;;;6.90;99.90;;;;;;5070970;28;20184;-67
2021/03/09 11:20:47;;;;;;;2.10;1.67;;;6.80;99.90;;;;;;5070242;28;20610;-68
2021/03/09 11:23:14;;;;;;;7.47;2.92;;;6.60;99.90;;;;;;5071026;28;20563;-68
2021/03/09 11:25:41;;;;;;;4.35;1.98;;;6.60;99.90;;;;;;5071412;28;20184;-70
2021/03/09 11:28:09;;;;;;;1.50;1.40;;;6.60;99.90;;;;;;5057577;28;20223;-69
2021/03/09 11:30:36;;;;;;;1.35;1.25;;;6.60;99.90;;;;;;5051754;28;20184;-66
2021/03/09 11:33:03;;;;;;;1.67;1.58;;;6.60;99.90;;;;;;5069632;28;20190;-72
2021/03/09 11:35:31;;;;;;;1.75;1.35;;;6.70;99.90;;;;;;5054860;28;20199;-72
2021/03/09 11:37:58;;;;;;;2.55;1.88;;;6.80;99.90;;;;;;5053601;28;20653;-71
2021/03/09 11:40:25;;;;;;;3.30;2.10;;;6.70;99.90;;;;;;5052247;28;20181;-71
2021/03/09 11:42:52;;;;;;;1.83;1.60;;;6.30;99.90;;;;;;5052294;28;20406;-72
2021/03/09 11:45:20;;;;;;;2.92;2.05;;;6.20;99.90;;;;;;5034635;28;20200;-71
2021/03/09 11:47:48;;;;;;;2.88;2.58;;;6.20;99.90;;;;;;5052325;28;20271;-70
2021/03/09 11:50:16;;;;;;;2.95;1.90;;;6.40;99.90;;;;;;5052840;28;20196;-71
2021/03/09 11:52:43;;;;;;;2.53;1.42;;;6.50;99.90;;;;;;5052565;28;20224;-70
2021/03/09 11:55:11;;;;;;;1.75;1.63;;;6.60;99.90;;;;;;5054101;28;20197;-72
2021/03/09 11:57:39;;;;;;;2.30;1.90;;;6.60;99.90;;;;;;5053559;28;20239;-70
2021/03/09 12:00:07;;;;;;;2.20;1.67;;;6.60;99.90;;;;;;5072513;28;20187;-72
2021/03/09 12:02:35;;;;;;;2.80;1.50;;;6.70;99.90;;;;;;5076712;28;20192;-70
2021/03/09 12:05:04;;;;;;;2.17;1.60;;;6.80;99.90;;;;;;5069131;28;20189;-73
2021/03/09 12:07:31;;;;;;;4.45;3.35;;;6.80;99.90;;;;;;5061518;28;20555;-69
2021/03/09 12:09:58;;;;;;;3.15;1.75;;;6.90;99.90;;;;;;5060863;28;20173;-69
2021/03/09 12:12:25;;;;;;;1.83;1.20;;;7.00;99.90;;;;;;5057025;28;20197;-72
2021/03/09 12:14:53;;;;;;;6.65;1.30;;;7.20;99.90;;;;;;5053121;28;20228;-75
2021/03/09 12:17:20;;;;;;;3.60;2.40;;;7.20;99.90;;;;;;5044644;28;20219;-70
2021/03/09 12:19:48;;;;;;;2.65;2.28;;;7.00;99.90;;;;;;5056972;28;20594;-70
2021/03/09 12:22:15;;;;;;;2.63;1.83;;;7.00;99.90;;;;;;5061468;28;20658;-69
2021/03/09 12:24:42;;;;;;;2.95;1.70;;;7.70;99.90;;;;;;5065505;28;20512;-69
2021/03/09 12:27:09;;;;;;;2.15;1.67;;;8.30;99.90;;;;;;5047664;28;20716;-71
2021/03/09 12:29:36;;;;;;;4.25;2.70;;;8.70;99.90;;;;;;5063946;28;20177;-70
2021/03/09 12:32:08;;;;;;;2.60;1.95;;;8.90;99.90;;;;;;5044560;28;20193;-69
2021/03/09 12:34:40;;;;;;;3.15;2.28;;;8.80;99.90;;;;;;5060383;28;20216;-70
2021/03/09 12:37:09;;;;;;;5.88;3.17;;;8.50;99.90;;;;;;5059736;28;20576;-68
2021/03/09 12:39:48;;;;;;;2.05;1.77;;;8.20;99.90;;;;;;5059945;28;20212;-69
2021/03/09 12:42:16;;;;;;;2.70;2.17;;;8.40;99.90;;;;;;5055471;28;20653;-69
2021/03/09 12:44:43;;;;;;;3.58;1.92;;;8.30;99.90;;;;;;5056775;28;20173;-69
2021/03/09 12:47:11;;;;;;;3.05;2.13;;;8.00;99.90;;;;;;5037271;28;20232;-69
2021/03/09 12:49:38;;;;;;;1.70;1.42;;;7.70;99.90;;;;;;5054882;28;20272;-69
2021/03/09 12:52:07;;;;;;;4.93;2.47;;;7.70;99.90;;;;;;5037648;28;20355;-68
2021/03/09 12:54:35;;;;;;;1.42;1.33;;;7.80;99.90;;;;;;5054560;28;20217;-68
2021/03/09 12:57:03;;;;;;;4.43;2.70;;;7.70;99.90;;;;;;5054701;28;20209;-68
2021/03/09 12:59:34;;;;;;;3.35;1.90;;;8.30;99.90;;;;;;5054710;28;20193;-70
2021/03/09 13:02:01;;;;;;;4.90;2.35;;;8.80;99.90;;;;;;5053971;28;20185;-70
2021/03/09 13:04:29;;;;;;;4.75;2.38;;;8.50;99.90;;;;;;5055395;28;20223;-70
2021/03/09 13:06:56;;;;;;;4.75;2.67;;;8.50;99.90;;;;;;5055414;28;20208;-70
2021/03/09 13:09:23;;;;;;;3.83;2.63;;;8.30;99.90;;;;;;5046575;28;20276;-71